Time;durP1;ratioP1;P1;durP2;ratioP2;P2;SDS_P1;SDS_P2;PMS_P1;PMS_P2;Temp;Humidity;BMP_temperature;BMP_pressure;BME280_temperature;BME280_humidity;BME280_pressure;Samples;Min_cycle;Max_cycle;Signal;HPM_P1;HPM_P2
2022/01/19 00:00:54;;;;;;;;;;;18.70;45.70;;;;;;5105866;27;43556;-75
2022/01/19 00:03:20;;;;;;;;;;;18.70;45.70;;;;;;5105688;27;42947;-76
2022/01/19 00:05:45;;;;;;;;;;;18.70;45.80;;;;;;5104884;27;43950;-76
2022/01/19 00:08:16;;;;;;;;;;;18.70;45.70;;;;;;5104458;27;42928;-76
2022/01/19 00:10:42;;;;;;;;;;;18.70;45.80;;;;;;5104234;27;43067;-76
2022/01/19 00:13:08;;;;;;;;;;;18.70;45.70;;;;;;5105327;27;43058;-75
2022/01/19 00:15:33;;;;;;;;;;;18.70;45.80;;;;;;5105161;27;43533;-76
2022/01/19 00:17:59;;;;;;;;;;;18.70;45.70;;;;;;5105219;27;42802;-76
2022/01/19 00:20:25;;;;;;;;;;;18.70;45.80;;;;;;5105394;27;43425;-76
2022/01/19 00:22:51;;;;;;;;;;;18.70;45.80;;;;;;5105151;27;42942;-76
2022/01/19 00:25:17;;;;;;;;;;;18.70;45.80;;;;;;5105218;27;43105;-75
2022/01/19 00:27:43;;;;;;;;;;;18.70;45.80;;;;;;5105276;27;42860;-76
2022/01/19 00:30:09;;;;;;;;;;;18.70;45.70;;;;;;5091920;27;43692;-76
2022/01/19 00:32:34;;;;;;;;;;;18.70;45.80;;;;;;5084016;27;43189;-76
2022/01/19 00:35:00;;;;;;;;;;;18.70;45.80;;;;;;5083073;27;43641;-76
2022/01/19 00:37:26;;;;;;;;;;;18.70;45.80;;;;;;5116972;27;42982;-76
2022/01/19 00:39:52;;;;;;;;;;;18.70;45.70;;;;;;5083904;27;42868;-76
2022/01/19 00:42:17;;;;;;;;;;;18.70;45.80;;;;;;5082856;27;42962;-76
2022/01/19 00:44:43;;;;;;;;;;;18.70;45.70;;;;;;5082878;27;43222;-76
2022/01/19 00:47:09;;;;;;;;;;;18.70;45.80;;;;;;5084073;27;43048;-76
2022/01/19 00:49:34;;;;;;;;;;;18.70;45.70;;;;;;5084565;27;43476;-76
2022/01/19 00:52:00;;;;;;;;;;;18.70;45.70;;;;;;5083129;27;42865;-76
2022/01/19 00:54:25;;;;;;;;;;;18.70;46.30;;;;;;5087080;27;43837;-76
2022/01/19 00:56:51;;;;;;;;;;;18.70;45.80;;;;;;5087416;27;43005;-76
2022/01/19 00:59:16;;;;;;;;;;;18.70;45.80;;;;;;5087098;28;44043;-76
2022/01/19 01:01:42;;;;;;;;;;;18.70;45.80;;;;;;5087531;27;43085;-76
2022/01/19 01:04:07;;;;;;;;;;;18.70;45.80;;;;;;5087539;28;43855;-76
2022/01/19 01:06:33;;;;;;;;;;;18.70;45.80;;;;;;5119926;27;43063;-76
2022/01/19 01:08:59;;;;;;;;;;;19.60;46.30;;;;;;5086285;27;43426;-76
2022/01/19 01:11:29;;;;;;;;;;;18.70;45.90;;;;;;5086662;28;42999;-76
2022/01/19 01:19:15;;;;;;;;;;;18.70;45.80;;;;;;5082022;27;42981;-76
2022/01/19 01:21:41;;;;;;;;;;;18.70;45.80;;;;;;5086475;27;42985;-76
2022/01/19 01:24:06;;;;;;;;;;;18.70;45.80;;;;;;5085567;27;44002;-76
2022/01/19 01:26:32;;;;;;;;;;;18.70;45.80;;;;;;5086825;27;42930;-77
2022/01/19 01:28:57;;;;;;;;;;;18.70;45.90;;;;;;5086954;27;42824;-76
2022/01/19 01:31:23;;;;;;;;;;;18.70;45.80;;;;;;5106926;27;43178;-76
2022/01/19 01:33:49;;;;;;;;;;;18.70;45.90;;;;;;5106080;27;42987;-76
2022/01/19 01:36:14;;;;;;;;;;;18.70;45.90;;;;;;5106414;27;42966;-76
2022/01/19 01:38:40;;;;;;;;;;;18.70;45.90;;;;;;5106807;27;43467;-76
2022/01/19 01:41:08;;;;;;;;;;;18.70;45.90;;;;;;5107060;27;42945;-76
2022/01/19 01:43:34;;;;;;;;;;;18.70;45.90;;;;;;5106503;27;43162;-76
2022/01/19 01:46:04;;;;;;;;;;;18.70;45.80;;;;;;5107196;27;42974;-76
2022/01/19 01:48:30;;;;;;;;;;;18.70;45.90;;;;;;5106980;27;43578;-76
2022/01/19 01:53:40;;;;;;;;;;;18.60;45.90;;;;;;5106571;27;43458;-76
2022/01/19 01:56:08;;;;;;;;;;;18.70;45.80;;;;;;5107182;27;42988;-76
2022/01/19 01:58:40;;;;;;;;;;;18.70;45.90;;;;;;5105887;27;43953;-75
2022/01/19 02:01:07;;;;;;;;;;;20.60;46.80;;;;;;5106183;27;42936;-76
2022/01/19 02:03:38;;;;;;;;;;;18.60;45.80;;;;;;5106523;27;43023;-76
2022/01/19 02:09:06;;;;;;;;;;;18.70;45.90;;;;;;5105439;27;43325;-75
2022/01/19 02:22:59;;;;;;;;;;;18.60;45.90;;;;;;5106217;27;43374;-76
2022/01/19 02:25:28;;;;;;;;;;;18.60;45.80;;;;;;5104765;27;43352;-76
2022/01/19 02:31:13;;;;;;;;;;;18.60;45.90;;;;;;5104998;27;43003;-75
2022/01/19 02:41:39;;;;;;;;;;;18.60;45.70;;;;;;5105920;27;43199;-76
2022/01/19 02:44:06;;;;;;;;;;;18.60;45.70;;;;;;5105103;27;42980;-76
2022/01/19 02:46:42;;;;;;;;;;;18.70;45.70;;;;;;5105954;27;43821;-76
2022/01/19 02:49:16;;;;;;;;;;;18.60;45.70;;;;;;5105872;27;43165;-76
2022/01/19 02:51:48;;;;;;;;;;;18.60;45.70;;;;;;5103847;27;44425;-76
2022/01/19 02:54:15;;;;;;;;;;;18.60;45.70;;;;;;5103992;27;43102;-77
2022/01/19 02:56:44;;;;;;;;;;;18.60;45.70;;;;;;5105194;27;43812;-76
2022/01/19 02:59:18;;;;;;;;;;;18.60;45.60;;;;;;5105583;27;43309;-76
2022/01/19 03:09:44;;;;;;;;;;;18.60;45.60;;;;;;5107229;27;42971;-76
2022/01/19 03:12:10;;;;;;;;;;;18.60;46.00;;;;;;5106572;27;42919;-76
2022/01/19 03:14:36;;;;;;;;;;;18.60;45.60;;;;;;5105442;27;43079;-76
2022/01/19 03:17:01;;;;;;;;;;;18.60;45.50;;;;;;5105209;27;42881;-76
2022/01/19 03:19:29;;;;;;;;;;;18.60;45.50;;;;;;5104842;27;43019;-76
2022/01/19 03:21:55;;;;;;;;;;;18.60;45.70;;;;;;5137789;27;42840;-75
2022/01/19 03:24:21;;;;;;;;;;;18.60;45.50;;;;;;5105790;27;43001;-77
2022/01/19 03:26:46;;;;;;;;;;;18.60;45.40;;;;;;5104437;27;43236;-76
2022/01/19 03:29:12;;;;;;;;;;;18.60;45.50;;;;;;5104928;27;43000;-76
2022/01/19 03:31:37;;;;;;;;;;;18.60;45.40;;;;;;5105053;27;42829;-76
2022/01/19 03:34:05;;;;;;;;;;;18.60;45.50;;;;;;5105532;27;42787;-77
2022/01/19 03:36:30;;;;;;;;;;;18.60;45.40;;;;;;5104464;27;42914;-76
2022/01/19 03:38:56;;;;;;;;;;;18.60;45.50;;;;;;5105315;27;42942;-76
2022/01/19 03:41:22;;;;;;;;;;;18.60;45.40;;;;;;5104802;27;43014;-76
2022/01/19 03:43:47;;;;;;;;;;;18.60;45.40;;;;;;5104855;27;43132;-76
2022/01/19 03:46:14;;;;;;;;;;;18.60;45.40;;;;;;5104186;27;43028;-76
2022/01/19 03:48:57;;;;;;;;;;;18.60;45.30;;;;;;5104850;27;42920;-76
2022/01/19 03:51:22;;;;;;;;;;;18.60;45.40;;;;;;5104327;27;43089;-76
2022/01/19 03:53:48;;;;;;;;;;;18.60;45.40;;;;;;5104044;27;43074;-76
2022/01/19 03:56:14;;;;;;;;;;;18.60;45.30;;;;;;5104278;27;43206;-76
2022/01/19 03:58:40;;;;;;;;;;;18.60;45.30;;;;;;5104177;27;42955;-76
2022/01/19 04:01:06;;;;;;;;;;;18.60;45.30;;;;;;5104782;27;42905;-76
2022/01/19 04:04:01;;;;;;;;;;;18.60;45.30;;;;;;5104980;27;43363;-76
2022/01/19 04:06:27;;;;;;;;;;;18.60;45.30;;;;;;5103681;27;43951;-76
2022/01/19 04:08:53;;;;;;;;;;;18.60;45.30;;;;;;5104563;27;43169;-77
2022/01/19 04:11:21;;;;;;;;;;;18.60;45.20;;;;;;5104369;27;43588;-75
2022/01/19 04:16:30;;;;;;;;;;;18.50;45.20;;;;;;5104092;27;43289;-76
2022/01/19 04:21:30;;;;;;;;;;;18.60;45.30;;;;;;5124643;27;43517;-76
2022/01/19 04:23:56;;;;;;;;;;;18.60;45.30;;;;;;5124212;27;43054;-76
2022/01/19 04:26:21;;;;;;;;;;;18.60;45.30;;;;;;5125320;27;43543;-77
2022/01/19 04:28:47;;;;;;;;;;;18.60;45.90;;;;;;5129222;27;42891;-76
2022/01/19 04:31:12;;;;;;;;;;;18.60;45.40;;;;;;5129009;27;43031;-76
2022/01/19 04:33:41;;;;;;;;;;;18.50;45.30;;;;;;5128731;27;42933;-76
2022/01/19 04:36:21;;;;;;;;;;;18.60;45.40;;;;;;5127886;27;43429;-76
2022/01/19 04:39:20;;;;;;;;;;;18.60;45.30;;;;;;5129161;27;42919;-76
2022/01/19 04:44:36;;;;;;;;;;;18.60;45.30;;;;;;5129138;27;42905;-76
2022/01/19 05:03:31;;;;;;;;;;;18.50;45.40;;;;;;5108355;27;43283;-77
2022/01/19 05:06:08;;;;;;;;;;;18.50;45.30;;;;;;5139647;27;43027;-76
2022/01/19 05:08:52;;;;;;;;;;;18.50;45.50;;;;;;5125472;27;44017;-76
2022/01/19 05:14:01;;;;;;;;;;;18.50;45.50;;;;;;5127931;27;42916;-76
2022/01/19 05:16:27;;;;;;;;;;;18.50;45.50;;;;;;5128048;27;43221;-76
2022/01/19 05:18:53;;;;;;;;;;;18.50;45.40;;;;;;5121866;27;43042;-76
2022/01/19 05:21:18;;;;;;;;;;;18.50;45.40;;;;;;5106699;27;43221;-76
2022/01/19 05:23:44;;;;;;;;;;;18.50;45.40;;;;;;5103845;27;43334;-76
2022/01/19 05:26:10;;;;;;;;;;;18.50;45.50;;;;;;5123943;27;43019;-76
2022/01/19 05:28:35;;;;;;;;;;;18.50;45.50;;;;;;5127951;27;44072;-76
2022/01/19 05:31:01;;;;;;;;;;;18.50;45.50;;;;;;5128401;27;42955;-76
2022/01/19 05:33:27;;;;;;;;;;;18.50;45.70;;;;;;5104651;27;43436;-75
2022/01/19 05:35:52;;;;;;;;;;;18.50;45.10;;;;;;5101367;27;42902;-74
2022/01/19 05:38:18;;;;;;;;;;;18.50;45.70;;;;;;5104580;27;42905;-75
2022/01/19 05:40:43;;;;;;;;;;;18.50;45.70;;;;;;5105452;27;43043;-75
2022/01/19 05:43:10;;;;;;;;;;;18.50;45.20;;;;;;5105721;27;43004;-76
2022/01/19 05:45:35;;;;;;;;;;;18.50;44.70;;;;;;5111499;27;43351;-76
2022/01/19 05:48:01;;;;;;;;;;;18.40;44.90;;;;;;5104754;27;43180;-75
2022/01/19 05:50:27;;;;;;;;;;;18.40;45.30;;;;;;5109615;27;42984;-74
2022/01/19 05:52:52;;;;;;;;;;;18.40;45.30;;;;;;5115525;27;43485;-75
2022/01/19 05:55:18;;;;;;;;;;;18.50;45.30;;;;;;5107110;27;43364;-75
2022/01/19 05:57:44;;;;;;;;;;;18.10;35.50;;;;;;5103580;27;42957;-76
2022/01/19 06:00:10;;;;;;;;;;;17.00;33.40;;;;;;5103558;27;42864;-75
2022/01/19 06:02:36;;;;;;;;;;;16.40;33.70;;;;;;5109775;27;43416;-75
2022/01/19 06:05:02;;;;;;;;;;;15.90;33.60;;;;;;5113162;27;43037;-76
2022/01/19 06:07:39;;;;;;;;;;;15.90;34.30;;;;;;5116870;27;42995;-76
2022/01/19 06:10:07;;;;;;;;;;;15.60;34.10;;;;;;5123525;27;42993;-74
2022/01/19 06:12:33;;;;;;;;;;;15.40;34.10;;;;;;5124151;27;44012;-74
2022/01/19 06:14:59;;;;;;;;;;;15.30;34.60;;;;;;5125707;27;43013;-75
2022/01/19 06:17:24;;;;;;;;;;;15.20;34.20;;;;;;5104790;27;43581;-75
2022/01/19 06:19:50;;;;;;;;;;;15.20;34.10;;;;;;5105186;27;43168;-76
2022/01/19 06:22:17;;;;;;;;;;;15.00;34.20;;;;;;5106452;27;43939;-76
2022/01/19 06:24:43;;;;;;;;;;;14.90;34.10;;;;;;5105612;27;43573;-75
2022/01/19 06:27:09;;;;;;;;;;;14.80;34.20;;;;;;5106945;27;43019;-74
2022/01/19 06:29:34;;;;;;;;;;;14.90;34.40;;;;;;5106024;27;43728;-75
2022/01/19 06:32:00;;;;;;;;;;;14.80;34.50;;;;;;5105823;27;42892;-74
2022/01/19 06:34:26;;;;;;;;;;;14.70;34.60;;;;;;5112507;27;42989;-75
2022/01/19 06:36:53;;;;;;;;;;;14.60;34.50;;;;;;5116917;27;43057;-75
2022/01/19 06:39:22;;;;;;;;;;;14.40;34.50;;;;;;5107385;27;42989;-75
2022/01/19 06:41:47;;;;;;;;;;;14.30;34.50;;;;;;5109095;27;44677;-73
2022/01/19 06:44:14;;;;;;;;;;;14.30;34.50;;;;;;5113782;27;42980;-75
2022/01/19 06:46:40;;;;;;;;;;;14.20;34.30;;;;;;5106368;27;42896;-75
2022/01/19 06:49:05;;;;;;;;;;;14.20;34.50;;;;;;5105498;27;42943;-74
2022/01/19 06:51:31;;;;;;;;;;;14.00;34.50;;;;;;5103909;27;43587;-75
2022/01/19 06:53:56;;;;;;;;;;;13.90;34.90;;;;;;5105085;27;42949;-74
2022/01/19 06:56:22;;;;;;;;;;;14.60;34.70;;;;;;5106312;27;42859;-74
2022/01/19 06:58:48;;;;;;;;;;;15.20;34.90;;;;;;5106891;27;42886;-76
2022/01/19 07:01:13;;;;;;;;;;;15.60;35.10;;;;;;5106426;27;43573;-75
2022/01/19 07:03:39;;;;;;;;;;;15.80;35.20;;;;;;5106300;27;43103;-75
2022/01/19 07:06:05;;;;;;;;;;;16.10;35.40;;;;;;5106157;27;42904;-75
2022/01/19 07:08:30;;;;;;;;;;;16.20;35.50;;;;;;5106022;27;42837;-75
2022/01/19 07:10:56;;;;;;;;;;;16.30;35.80;;;;;;5105478;27;43942;-75
2022/01/19 07:13:21;;;;;;;;;;;16.40;36.00;;;;;;5105825;27;43185;-74
2022/01/19 07:15:47;;;;;;;;;;;16.50;36.30;;;;;;5105894;27;42917;-75
2022/01/19 07:18:13;;;;;;;;;;;16.50;36.40;;;;;;5105843;27;42821;-76
2022/01/19 07:20:38;;;;;;;;;;;16.60;36.70;;;;;;5105533;27;42944;-75
2022/01/19 07:23:04;;;;;;;;;;;16.70;36.90;;;;;;5106423;27;42961;-75
2022/01/19 07:25:30;;;;;;;;;;;16.70;37.20;;;;;;5106344;27;43086;-75
2022/01/19 07:27:55;;;;;;;;;;;16.70;37.20;;;;;;5106332;27;42988;-75
2022/01/19 07:30:21;;;;;;;;;;;16.70;37.40;;;;;;5106461;27;42854;-75
2022/01/19 07:32:49;;;;;;;;;;;16.80;37.60;;;;;;5106312;27;42847;-75
2022/01/19 07:35:16;;;;;;;;;;;16.80;37.80;;;;;;5106257;27;43015;-75
2022/01/19 07:37:41;;;;;;;;;;;16.80;37.90;;;;;;5105877;27;42930;-75
2022/01/19 07:40:07;;;;;;;;;;;16.80;38.10;;;;;;5105298;27;43429;-75
2022/01/19 07:42:33;;;;;;;;;;;16.90;38.20;;;;;;5105571;27;43201;-76
2022/01/19 07:44:58;;;;;;;;;;;16.90;38.30;;;;;;5105402;27;43581;-75
2022/01/19 07:47:24;;;;;;;;;;;16.90;38.40;;;;;;5105695;27;42869;-76
2022/01/19 07:49:49;;;;;;;;;;;16.90;38.60;;;;;;5105658;27;42842;-76
2022/01/19 07:52:15;;;;;;;;;;;16.90;38.70;;;;;;5105392;27;42850;-75
2022/01/19 07:54:40;;;;;;;;;;;17.00;38.80;;;;;;5105830;27;43481;-75
2022/01/19 07:57:06;;;;;;;;;;;16.90;38.80;;;;;;5105658;27;43013;-75
2022/01/19 07:59:32;;;;;;;;;;;16.90;39.00;;;;;;5105648;27;43772;-74
2022/01/19 08:01:58;;;;;;;;;;;17.00;39.10;;;;;;5105571;27;42957;-75
2022/01/19 08:04:23;;;;;;;;;;;17.00;39.20;;;;;;5105276;27;42933;-75
2022/01/19 08:06:54;;;;;;;;;;;17.00;39.30;;;;;;5105672;27;43025;-77
2022/01/19 08:09:20;;;;;;;;;;;17.00;39.40;;;;;;5104625;27;43658;-75
2022/01/19 08:11:48;;;;;;;;;;;17.00;39.40;;;;;;5104662;27;59707;-75
2022/01/19 08:14:13;;;;;;;;;;;17.00;39.40;;;;;;5105280;27;42944;-75
2022/01/19 08:16:39;;;;;;;;;;;17.00;39.60;;;;;;5105785;27;43134;-75
2022/01/19 08:19:04;;;;;;;;;;;17.00;39.60;;;;;;5105117;27;42968;-75
2022/01/19 08:21:36;;;;;;;;;;;17.00;39.70;;;;;;5104823;27;42865;-75
2022/01/19 08:24:02;;;;;;;;;;;17.00;39.70;;;;;;5137749;27;43597;-75
2022/01/19 08:26:27;;;;;;;;;;;17.00;39.90;;;;;;5105359;27;42882;-76
2022/01/19 08:28:53;;;;;;;;;;;17.00;39.90;;;;;;5105526;27;42898;-75
2022/01/19 08:31:18;;;;;;;;;;;17.10;40.00;;;;;;5105781;27;42979;-75
2022/01/19 08:33:44;;;;;;;;;;;17.10;40.00;;;;;;5105561;27;43378;-75
2022/01/19 08:36:09;;;;;;;;;;;17.10;40.00;;;;;;5105519;27;43118;-74
2022/01/19 08:38:35;;;;;;;;;;;17.10;40.10;;;;;;5105022;27;42758;-75
2022/01/19 08:41:01;;;;;;;;;;;17.10;40.20;;;;;;5105999;27;42834;-76
2022/01/19 08:43:26;;;;;;;;;;;17.10;40.30;;;;;;5105060;27;42897;-75
2022/01/19 08:45:52;;;;;;;;;;;17.10;40.20;;;;;;5104552;27;42964;-76
2022/01/19 08:48:18;;;;;;;;;;;17.10;40.40;;;;;;5104858;27;43948;-75
2022/01/19 08:50:44;;;;;;;;;;;17.10;40.30;;;;;;5105257;27;42972;-75
2022/01/19 08:53:09;;;;;;;;;;;17.10;40.40;;;;;;5105410;27;43621;-74
2022/01/19 08:55:35;;;;;;;;;;;17.10;40.40;;;;;;5105455;27;43097;-74
2022/01/19 08:58:00;;;;;;;;;;;17.10;40.50;;;;;;5105244;27;43900;-74
2022/01/19 09:00:26;;;;;;;;;;;17.10;40.50;;;;;;5104994;27;42960;-75
2022/01/19 09:02:51;;;;;;;;;;;17.10;40.50;;;;;;5104861;27;42853;-75
2022/01/19 09:05:17;;;;;;;;;;;17.20;40.60;;;;;;5103682;27;43347;-75
2022/01/19 09:07:43;;;;;;;;;;;17.20;40.70;;;;;;5104514;27;43510;-75
2022/01/19 09:10:10;;;;;;;;;;;17.20;40.70;;;;;;5104047;27;43185;-75
2022/01/19 09:12:35;;;;;;;;;;;17.20;40.70;;;;;;5104263;27;43013;-75
2022/01/19 09:15:02;;;;;;;;;;;17.20;40.70;;;;;;5107427;27;42894;-75
2022/01/19 09:17:28;;;;;;;;;;;17.20;40.80;;;;;;5107981;27;42924;-74
2022/01/19 09:19:54;;;;;;;;;;;17.20;40.90;;;;;;5108615;27;43031;-75
2022/01/19 09:22:19;;;;;;;;;;;17.20;40.90;;;;;;5108261;27;43003;-76
2022/01/19 09:24:45;;;;;;;;;;;17.20;40.90;;;;;;5106842;27;42893;-75
2022/01/19 09:27:10;;;;;;;;;;;17.20;40.90;;;;;;5107950;27;42988;-75
2022/01/19 09:29:42;;;;;;;;;;;17.20;40.90;;;;;;5107919;27;43015;-75
2022/01/19 09:32:11;;;;;;;;;;;17.20;41.00;;;;;;5107484;27;43538;-75
2022/01/19 09:34:40;;;;;;;;;;;17.20;40.90;;;;;;5108073;27;43019;-74
2022/01/19 09:37:05;;;;;;;;;;;17.20;41.00;;;;;;5107607;27;44278;-75
2022/01/19 09:39:31;;;;;;;;;;;17.20;41.00;;;;;;5108085;27;42870;-75
2022/01/19 09:41:56;;;;;;;;;;;17.20;41.10;;;;;;5107809;27;43375;-75
2022/01/19 09:44:23;;;;;;;;;;;17.20;41.10;;;;;;5107747;27;42975;-75
2022/01/19 09:46:49;;;;;;;;;;;17.20;41.10;;;;;;5107918;27;43451;-76
2022/01/19 09:49:18;;;;;;;;;;;17.20;41.10;;;;;;5107467;27;42955;-75
2022/01/19 09:51:45;;;;;;;;;;;17.30;41.20;;;;;;5107797;27;43285;-76
2022/01/19 09:54:15;;;;;;;;;;;17.20;41.10;;;;;;5107833;27;42800;-75
2022/01/19 09:56:41;;;;;;;;;;;17.20;41.30;;;;;;5107435;27;43655;-75
2022/01/19 09:59:07;;;;;;;;;;;17.20;41.20;;;;;;5107487;27;42939;-75
2022/01/19 10:01:33;;;;;;;;;;;17.20;41.20;;;;;;5107489;27;42974;-76
2022/01/19 10:04:14;;;;;;;;;;;17.30;41.30;;;;;;5107961;27;42967;-75
2022/01/19 10:06:40;;;;;;;;;;;17.20;41.30;;;;;;5107769;27;43684;-75
2022/01/19 10:09:05;;;;;;;;;;;17.20;41.30;;;;;;5106976;27;42927;-75
2022/01/19 10:16:59;;;;;;;;;;;17.20;41.40;;;;;;5107454;27;43153;-75
2022/01/19 10:19:54;;;;;;;;;;;17.20;41.30;;;;;;5107596;27;43017;-75
2022/01/19 10:22:25;;;;;;;;;;;17.20;41.30;;;;;;5092052;27;43652;-75
2022/01/19 10:24:56;;;;;;;;;;;17.20;41.40;;;;;;5107199;27;42757;-75
2022/01/19 10:27:27;;;;;;;;;;;17.20;41.50;;;;;;5106665;27;43063;-75
2022/01/19 10:29:54;;;;;;;;;;;17.20;41.50;;;;;;5106545;27;42824;-75
2022/01/19 10:32:25;;;;;;;;;;;17.20;41.50;;;;;;5106544;27;43014;-75
2022/01/19 10:34:51;;;;;;;;;;;17.20;41.50;;;;;;5107618;27;42968;-75
2022/01/19 10:37:27;;;;;;;;;;;17.30;41.50;;;;;;5107179;27;43647;-75
2022/01/19 10:39:57;;;;;;;;;;;17.20;41.50;;;;;;5106889;27;42685;-75
2022/01/19 10:42:23;;;;;;;;;;;17.30;41.60;;;;;;5106649;27;43580;-75
2022/01/19 10:44:50;;;;;;;;;;;17.20;41.50;;;;;;5107298;27;43193;-75
2022/01/19 10:47:17;;;;;;;;;;;17.30;41.60;;;;;;5106605;27;42870;-74
2022/01/19 10:49:55;;;;;;;;;;;17.20;41.50;;;;;;5107051;27;42820;-74
2022/01/19 10:52:26;;;;;;;;;;;17.30;41.60;;;;;;5106515;27;44798;-74
2022/01/19 10:54:52;;;;;;;;;;;17.30;41.60;;;;;;5106979;27;43050;-75
2022/01/19 10:57:18;;;;;;;;;;;17.30;41.60;;;;;;5106809;27;43943;-75
2022/01/19 10:59:43;;;;;;;;;;;17.20;41.60;;;;;;5106507;27;43100;-75
2022/01/19 11:02:12;;;;;;;;;;;17.30;41.80;;;;;;5106689;27;42795;-75
2022/01/19 11:04:38;;;;;;;;;;;17.30;41.70;;;;;;5105317;27;43159;-74
2022/01/19 11:07:05;;;;;;;;;;;17.30;41.90;;;;;;5105349;27;45188;-76
2022/01/19 11:09:32;;;;;;;;;;;17.30;41.70;;;;;;5106636;27;43016;-75
2022/01/19 11:12:04;;;;;;;;;;;17.30;41.70;;;;;;5106212;27;42754;-75
2022/01/19 11:14:30;;;;;;;;;;;17.30;41.70;;;;;;5106790;27;42986;-75
2022/01/19 11:16:57;;;;;;;;;;;17.30;41.70;;;;;;5106623;27;43471;-74
2022/01/19 11:19:23;;;;;;;;;;;17.90;42.40;;;;;;5104839;27;42952;-75
2022/01/19 11:21:51;;;;;;;;;;;17.30;41.70;;;;;;5106312;27;43489;-75
2022/01/19 11:24:29;;;;;;;;;;;17.30;41.60;;;;;;5106411;27;43002;-75
2022/01/19 11:26:55;;;;;;;;;;;17.30;41.70;;;;;;5106463;27;43355;-74
2022/01/19 11:29:23;;;;;;;;;;;17.30;41.70;;;;;;5106638;27;42989;-75
2022/01/19 11:31:49;;;;;;;;;;;21.40;44.20;;;;;;5105170;27;44419;-75
2022/01/19 11:34:15;;;;;;;;;;;17.30;41.70;;;;;;5106192;27;42954;-75
2022/01/19 11:36:42;;;;;;;;;;;17.30;41.70;;;;;;5105506;27;43511;-75
2022/01/19 11:39:11;;;;;;;;;;;17.30;41.80;;;;;;5106564;27;43010;-75
2022/01/19 11:41:42;;;;;;;;;;;17.30;41.70;;;;;;5106080;27;44029;-75
2022/01/19 11:44:10;;;;;;;;;;;17.30;41.80;;;;;;5106181;27;42770;-74
2022/01/19 11:46:39;;;;;;;;;;;17.30;42.00;;;;;;5105980;27;43539;-74
2022/01/19 11:49:07;;;;;;;;;;;17.30;41.80;;;;;;5105199;27;42917;-74
2022/01/19 11:51:37;;;;;;;;;;;17.30;41.70;;;;;;5105101;27;43006;-75
2022/01/19 11:54:02;;;;;;;;;;;17.40;42.10;;;;;;5106170;27;42775;-75
2022/01/19 11:56:28;;;;;;;;;;;17.30;41.80;;;;;;5106236;27;43617;-75
2022/01/19 11:59:07;;;;;;;;;;;17.30;41.80;;;;;;5106248;27;42925;-75
2022/01/19 12:01:33;;;;;;;;;;;17.20;41.70;;;;;;5105546;27;43495;-76
2022/01/19 12:04:13;;;;;;;;;;;17.30;41.80;;;;;;5105726;27;42828;-75
2022/01/19 12:06:39;;;;;;;;;;;17.30;41.80;;;;;;5105884;27;43305;-75
2022/01/19 12:09:07;;;;;;;;;;;17.30;42.70;;;;;;5103980;27;42877;-75
2022/01/19 12:11:35;;;;;;;;;;;17.30;41.80;;;;;;5105084;27;42949;-75
2022/01/19 12:14:10;;;;;;;;;;;17.30;41.80;;;;;;5105089;27;43046;-76
2022/01/19 12:19:10;;;;;;;;;;;17.30;41.80;;;;;;5105694;27;42977;-77
2022/01/19 12:21:42;;;;;;;;;;;17.30;41.80;;;;;;5105590;27;43124;-74
2022/01/19 12:24:13;;;;;;;;;;;17.30;41.80;;;;;;5105787;27;43164;-75
2022/01/19 12:26:52;;;;;;;;;;;17.30;41.80;;;;;;5105392;27;43526;-75
2022/01/19 12:29:33;;;;;;;;;;;17.30;41.80;;;;;;5105230;27;42868;-74
2022/01/19 12:32:03;;;;;;;;;;;17.30;41.80;;;;;;5105157;27;43046;-75
2022/01/19 12:34:44;;;;;;;;;;;17.30;41.90;;;;;;5105475;27;42794;-76
2022/01/19 12:37:10;;;;;;;;;;;17.30;41.80;;;;;;5105331;27;42950;-77
2022/01/19 12:39:37;;;;;;;;;;;17.30;41.90;;;;;;5105179;27;42883;-76
2022/01/19 12:42:03;;;;;;;;;;;17.30;41.90;;;;;;5104913;27;43581;-76
2022/01/19 12:44:34;;;;;;;;;;;17.30;41.90;;;;;;5105205;27;42934;-76
2022/01/19 12:47:01;;;;;;;;;;;17.30;41.90;;;;;;5105076;27;42984;-77
2022/01/19 12:49:27;;;;;;;;;;;17.30;42.00;;;;;;5108461;27;42956;-76
2022/01/19 12:51:53;;;;;;;;;;;17.30;41.90;;;;;;5108301;27;43485;-77
2022/01/19 12:54:24;;;;;;;;;;;17.30;41.90;;;;;;5108705;27;43018;-76
2022/01/19 12:56:54;;;;;;;;;;;17.30;41.90;;;;;;5108643;27;43519;-75
2022/01/19 12:59:19;;;;;;;;;;;17.30;41.90;;;;;;5108232;27;43183;-76
2022/01/19 13:01:45;;;;;;;;;;;17.30;42.00;;;;;;5113915;27;42930;-75
2022/01/19 13:04:21;;;;;;;;;;;17.30;42.00;;;;;;5108314;27;43045;-77
2022/01/19 13:06:47;;;;;;;;;;;17.30;41.80;;;;;;5113247;27;43694;-76
2022/01/19 13:09:23;;;;;;;;;;;17.30;41.80;;;;;;5114583;27;42890;-75
2022/01/19 13:11:52;;;;;;;;;;;17.40;41.90;;;;;;5118393;27;43174;-75
2022/01/19 13:14:18;;;;;;;;;;;17.30;41.70;;;;;;5124459;27;43666;-75
2022/01/19 13:16:45;;;;;;;;;;;17.40;41.90;;;;;;5127263;27;43166;-76
2022/01/19 13:19:12;;;;;;;;;;;17.40;42.30;;;;;;5125790;27;43002;-75
2022/01/19 13:21:38;;;;;;;;;;;17.40;42.40;;;;;;5128764;27;43230;-75
2022/01/19 13:24:10;;;;;;;;;;;17.40;42.50;;;;;;5114103;27;42978;-75
2022/01/19 13:26:44;;;;;;;;;;;17.30;42.70;;;;;;5126044;27;43573;-76
2022/01/19 13:29:14;;;;;;;;;;;17.30;42.60;;;;;;5126868;27;42930;-76
2022/01/19 13:31:40;;;;;;;;;;;17.40;44.20;;;;;;5126757;27;43029;-78
2022/01/19 13:34:05;;;;;;;;;;;17.40;43.90;;;;;;5121880;27;42980;-76
2022/01/19 13:36:32;;;;;;;;;;;17.40;45.60;;;;;;5107077;27;43542;-75
2022/01/19 13:38:58;;;;;;;;;;;17.40;46.40;;;;;;5108087;27;42975;-77
2022/01/19 13:41:24;;;;;;;;;;;17.40;45.80;;;;;;5107487;27;43089;-75
2022/01/19 13:43:50;;;;;;;;;;;16.90;42.10;;;;;;5106125;27;42944;-73
2022/01/19 13:46:24;;;;;;;;;;;16.80;42.50;;;;;;5124453;27;43434;-74
2022/01/19 13:48:54;;;;;;;;;;;16.70;41.40;;;;;;5127636;27;42844;-75
2022/01/19 13:51:22;;;;;;;;;;;16.50;41.20;;;;;;5126279;27;42958;-75
2022/01/19 13:53:51;;;;;;;;;;;16.40;41.30;;;;;;5119607;27;42924;-74
2022/01/19 13:56:27;;;;;;;;;;;16.40;41.40;;;;;;5123540;27;43019;-75
2022/01/19 13:58:55;;;;;;;;;;;16.60;41.50;;;;;;5127277;27;42971;-73
2022/01/19 14:01:32;;;;;;;;;;;16.80;41.60;;;;;;5125104;27;43556;-74
2022/01/19 14:04:04;;;;;;;;;;;17.00;42.10;;;;;;5107258;27;42856;-75
2022/01/19 14:06:40;;;;;;;;;;;17.00;42.60;;;;;;5107332;27;42961;-76
2022/01/19 14:09:06;;;;;;;;;;;17.10;43.00;;;;;;5107018;27;42948;-76
2022/01/19 14:11:32;;;;;;;;;;;17.20;43.40;;;;;;5106858;27;42937;-74
2022/01/19 14:13:59;;;;;;;;;;;17.20;43.60;;;;;;5106934;27;42908;-75
2022/01/19 14:16:24;;;;;;;;;;;17.30;43.90;;;;;;5107305;27;42952;-76
2022/01/19 14:19:09;;;;;;;;;;;17.30;44.20;;;;;;5106441;27;42990;-74
2022/01/19 14:21:35;;;;;;;;;;;17.30;44.30;;;;;;5122261;27;44855;-75
2022/01/19 14:24:01;;;;;;;;;;;17.30;44.30;;;;;;5104589;27;42902;-75
2022/01/19 14:26:27;;;;;;;;;;;17.30;44.20;;;;;;5105983;27;43688;-72
2022/01/19 14:29:11;;;;;;;;;;;17.40;44.00;;;;;;5122684;27;42936;-75
2022/01/19 14:32:06;;;;;;;;;;;17.40;43.70;;;;;;5121094;27;44124;-75
2022/01/19 14:34:36;;;;;;;;;;;17.40;43.80;;;;;;5105435;27;43139;-75
2022/01/19 14:37:15;;;;;;;;;;;17.40;43.90;;;;;;5126816;27;43583;-75
2022/01/19 14:39:45;;;;;;;;;;;17.40;43.60;;;;;;5127519;27;42841;-75
2022/01/19 14:42:10;;;;;;;;;;;17.40;43.40;;;;;;5126917;27;43938;-75
2022/01/19 14:44:41;;;;;;;;;;;17.50;43.80;;;;;;5106782;27;42950;-75
2022/01/19 14:47:16;;;;;;;;;;;17.50;43.80;;;;;;5106456;27;43313;-75
2022/01/19 14:49:42;;;;;;;;;;;17.50;43.70;;;;;;5106399;27;42937;-75
2022/01/19 14:52:07;;;;;;;;;;;17.50;43.90;;;;;;5105723;27;43913;-76
2022/01/19 14:54:33;;;;;;;;;;;17.50;44.00;;;;;;5118550;27;43487;-76
2022/01/19 14:56:58;;;;;;;;;;;17.50;43.70;;;;;;5106482;27;43356;-73
2022/01/19 14:59:24;;;;;;;;;;;17.50;44.30;;;;;;5110311;27;42960;-77
2022/01/19 15:01:56;;;;;;;;;;;17.50;43.80;;;;;;5119650;27;43433;-76
2022/01/19 15:04:21;;;;;;;;;;;17.60;44.10;;;;;;5121973;27;43008;-76
2022/01/19 15:06:48;;;;;;;;;;;17.60;43.30;;;;;;5125084;27;43326;-76
2022/01/19 15:09:14;;;;;;;;;;;17.60;43.30;;;;;;5126688;27;43034;-75
2022/01/19 15:11:41;;;;;;;;;;;17.60;43.60;;;;;;5125496;27;42980;-76
2022/01/19 15:14:07;;;;;;;;;;;17.60;43.70;;;;;;5110163;27;42948;-76
2022/01/19 15:16:32;;;;;;;;;;;17.60;43.80;;;;;;5106050;27;43045;-76
2022/01/19 15:18:58;;;;;;;;;;;17.60;43.70;;;;;;5106044;27;42881;-76
2022/01/19 15:21:23;;;;;;;;;;;17.60;43.60;;;;;;5105841;27;43038;-76
2022/01/19 15:23:49;;;;;;;;;;;17.60;43.70;;;;;;5105885;27;42986;-76
2022/01/19 15:26:16;;;;;;;;;;;17.60;43.70;;;;;;5105115;27;43639;-75
2022/01/19 15:28:41;;;;;;;;;;;17.60;44.00;;;;;;5105893;27;42975;-76
2022/01/19 15:31:08;;;;;;;;;;;17.60;43.90;;;;;;5106189;27;43037;-76
2022/01/19 15:33:34;;;;;;;;;;;17.60;43.80;;;;;;5104507;27;42969;-76
2022/01/19 15:36:04;;;;;;;;;;;17.70;43.60;;;;;;5106237;27;42881;-76